• Join FlightAware (Why Join?)
  • Login
  • US Flag 
01:22PM EDT


 

Airport Tracker/Info


-or-


 

Live Flight TrackerFlight Track Log ✈ LOF3376 ✈ 28-Apr-2013 ✈ KSTL - KORD

Flight Track Log - Related Links

Times and Time Zones

All times are in EDT time to prevent confusion due to time zone crossing. See the LOF3376 flight status page for this flight to view local times or setup timezone preferences in your user account.

Time Position Orientation Groundspeed Altitude Reporting Facility
EDT Latitude Longitude Course Direction KTS MPH feet Rate Location/Type
06:51AM 38.7667 -90.4167 356° North 153 176 1,200  Level Gateway (St. Louis) TRACON
06:52AM 38.8000 -90.4500 322° Northwest 206 237 3,200 2,100 Climbing Gateway (St. Louis) TRACON
06:52AM 38.8361 -90.4442 North 221 254 4,700 1,920 Climbing Kansas City Center
06:53AM 38.8875 -90.4233 18° North 230 265 6,400 1,920 Climbing Kansas City Center
06:54AM 38.9316 -90.2000 North  Level FlightAware Approximate
06:54AM 38.9556 -90.3947 18° North 249 287 8,600  Level Kansas City Center
06:55AM 39.0130 -90.2000 North  Level FlightAware Approximate
06:55AM 39.0278 -90.3650 18° North 266 306 10,800  Level Kansas City Center
06:56AM 39.0941 -90.2077 356° North  Level FlightAware Approximate
06:56AM 39.1231 -90.3256 18° North 296 341 12,300  Level Kansas City Center
06:57AM 39.2092 -90.2886 18° North 323 372 13,600 1,200 Climbing Kansas City Center
06:58AM 39.3003 -90.2506 18° North 339 390 14,800 1,200 Climbing Kansas City Center
06:59AM 39.3958 -90.2139 17° North 352 405 16,000 1,200 Climbing Kansas City Center
07:00AM 39.4947 -90.1919 10° North 359 413 17,200 1,200 Climbing Kansas City Center
07:01AM 39.5950 -90.1683 10° North 364 419 18,400 1,140 Climbing Kansas City Center
07:02AM 39.6983 -90.1467 North 373 429 19,600 1,140 Climbing Kansas City Center
07:03AM 39.7922 -90.1256 10° North 375 432 20,700 720 Climbing Kansas City Center
07:04AM 39.8772 -90.1064 10° North 385 443 21,000 120 Climbing Chicago Center
07:05AM 39.9878 -90.0803 10° North 401 461 21,000  Level Chicago Center
07:06AM 40.0969 -90.0503 12° North 402 463 21,000  Level Chicago Center
07:07AM 40.2036 -90.0033 19° North 404 465 21,000  Level Chicago Center
07:08AM 40.3111 -89.9575 18° North 405 466 21,000  Level Chicago Center
07:09AM 40.4181 -89.9108 18° North 406 467 21,000  Level Chicago Center
07:10AM 40.5422 -89.8572 18° North 406 467 21,000  Level Chicago Center
07:11AM 40.6489 -89.8106 18° North 406 467 21,000  Level Chicago Center
07:12AM 40.7561 -89.7642 18° North 404 465 21,000  Level Chicago Center
07:13AM 40.8625 -89.7178 18° North 402 463 21,000  Level Chicago Center
07:14AM 40.9675 -89.6725 18° North 399 459 21,000 -720 Level Chicago Center
07:15AM 41.0611 -89.6308 19° North 375 432 19,600 -1,440 Descending Chicago Center
07:16AM 41.1525 -89.5806 22° Northeast 367 422 18,100 -1,620 Descending Chicago Center
07:17AM 41.2083 -89.4708 56° Northeast 364 419 16,400 -1,380 Descending Chicago Center
07:18AM 41.2575 -89.3483 62° Northeast 368 423 15,400 -1,080 Descending Chicago Center
07:19AM 41.3056 -89.2250 63° Northeast 376 433 14,300 -1,020 Descending Chicago Center
07:20AM 41.3528 -89.1042 62° Northeast 372 428 13,400 -1,080 Descending Chicago Center
07:21AM 41.4014 -88.9861 61° Northeast 367 422 12,200 -1,200 Descending Chicago Center
07:22AM 41.4478 -88.8689 62° Northeast 360 414 11,100 -600 Descending Chicago Center
07:23AM 41.4928 -88.7547 62° Northeast 353 406 11,000 -60 Descending Chicago Center
07:24AM 41.5383 -88.6411 62° Northeast 349 402 11,000  Level Chicago Center
07:25AM 41.5847 -88.5239 62° Northeast 355 409 11,000 -300 Level Chicago Center
07:26AM 41.6378 -88.4147 57° Northeast 352 405 10,400 -540 Descending Chicago Center
07:27AM 41.6981 -88.3119 52° Northeast 351 404 10,000 -240 Descending Chicago Center
07:28AM 41.7572 -88.2139 51° Northeast 343 395 10,000 -600 Level Chicago Center
07:29AM 41.8200 -88.1458 39° Northeast 297 342 8,800 -1,440 Descending Chicago Center
07:30AM 41.9142 -88.1517 357° North 283 326 7,100 -1,200 Descending Chicago Center
07:31AM 41.9892 -88.1572 357° North 274 315 6,400 -900 Descending Chicago Center
07:32AM 42.0617 -88.1633 356° North 265 305 5,300 -1,080 Descending Chicago Center
07:33AM 42.1192 -88.1219 28° Northeast 249 287 4,300 -960 Descending Chicago Center
07:34AM 42.1000 -88.0667 115° Southeast 208 239 3,600 -900 Descending Chicago TRACON